Frewsburg, New York
Current Conditions -  °F | °C
As of 7:35 AM on Sunday 23 Nov 2014 (Local Time) from KJHW Reporting Station
Overcast Overcast  
Wind Chill: 34°   Ceiling: 2800
Heat Index: 39°   Visibility: 10mi
Dew Point: 32°   Wind: 8mph
Humidity: 75%   Direction: 180°S
Pressure: 30.05"   Gusts: NA
Location:  42.05°N, 79.16°W
Report Text: KJHW 231235Z AUTO 18007KT 10SM BKN028 OVC034 04/00 A3005 RMK AO1
Loading
Personal Weather Stations






























Interactive Weather Map New forecast layout! Learn more

10-Day Weather Forecast

Advertisements
Track Severe Weather on mobile